sensor_id;sensor_type;location;lat;lon;timestamp;P1;durP1;ratioP1;P2;durP2;ratioP2
51566;SDS011;37657;53.182;5.638;2023-10-09T00:00:36;24.13;;;16.80;;
51566;SDS011;37657;53.182;5.638;2023-10-09T00:03:04;19.60;;;14.10;;
51566;SDS011;37657;53.182;5.638;2023-10-09T00:05:31;22.58;;;15.30;;
51566;SDS011;37657;53.182;5.638;2023-10-09T00:08:14;22.38;;;16.65;;
51566;SDS011;37657;53.182;5.638;2023-10-09T00:11:06;30.83;;;21.30;;
51566;SDS011;37657;53.182;5.638;2023-10-09T00:13:45;22.25;;;16.05;;
51566;SDS011;37657;53.182;5.638;2023-10-09T00:16:16;25.90;;;19.02;;
51566;SDS011;37657;53.182;5.638;2023-10-09T00:18:49;25.88;;;21.50;;
51566;SDS011;37657;53.182;5.638;2023-10-09T00:21:15;27.70;;;19.50;;
51566;SDS011;37657;53.182;5.638;2023-10-09T00:23:45;35.80;;;20.60;;
51566;SDS011;37657;53.182;5.638;2023-10-09T00:26:17;28.45;;;21.45;;
51566;SDS011;37657;53.182;5.638;2023-10-09T00:28:46;23.95;;;18.75;;
51566;SDS011;37657;53.182;5.638;2023-10-09T00:31:15;21.88;;;19.25;;
51566;SDS011;37657;53.182;5.638;2023-10-09T00:33:44;27.83;;;19.70;;
51566;SDS011;37657;53.182;5.638;2023-10-09T00:36:10;28.25;;;17.90;;
51566;SDS011;37657;53.182;5.638;2023-10-09T00:38:38;20.73;;;18.60;;
51566;SDS011;37657;53.182;5.638;2023-10-09T00:41:13;27.58;;;20.13;;
51566;SDS011;37657;53.182;5.638;2023-10-09T00:43:45;20.98;;;17.63;;
51566;SDS011;37657;53.182;5.638;2023-10-09T00:46:15;26.27;;;18.75;;
51566;SDS011;37657;53.182;5.638;2023-10-09T00:48:48;26.33;;;18.25;;
51566;SDS011;37657;53.182;5.638;2023-10-09T00:51:16;20.10;;;17.15;;
51566;SDS011;37657;53.182;5.638;2023-10-09T00:53:51;26.63;;;18.33;;
51566;SDS011;37657;53.182;5.638;2023-10-09T00:56:19;21.50;;;17.13;;
51566;SDS011;37657;53.182;5.638;2023-10-09T00:58:54;26.77;;;18.63;;
51566;SDS011;37657;53.182;5.638;2023-10-09T01:01:34;28.55;;;19.42;;
51566;SDS011;37657;53.182;5.638;2023-10-09T01:04:04;26.08;;;19.88;;
51566;SDS011;37657;53.182;5.638;2023-10-09T01:06:37;28.90;;;19.38;;
51566;SDS011;37657;53.182;5.638;2023-10-09T01:09:09;26.35;;;20.88;;
51566;SDS011;37657;53.182;5.638;2023-10-09T01:11:39;27.40;;;22.17;;
51566;SDS011;37657;53.182;5.638;2023-10-09T01:14:28;25.58;;;18.55;;
51566;SDS011;37657;53.182;5.638;2023-10-09T01:16:53;25.13;;;19.20;;
51566;SDS011;37657;53.182;5.638;2023-10-09T01:19:20;26.85;;;19.92;;
51566;SDS011;37657;53.182;5.638;2023-10-09T01:21:52;28.02;;;18.38;;
51566;SDS011;37657;53.182;5.638;2023-10-09T01:24:18;21.73;;;17.88;;
51566;SDS011;37657;53.182;5.638;2023-10-09T01:26:45;22.52;;;17.25;;
51566;SDS011;37657;53.182;5.638;2023-10-09T01:31:45;20.42;;;17.33;;
51566;SDS011;37657;53.182;5.638;2023-10-09T01:34:28;29.92;;;20.30;;
51566;SDS011;37657;53.182;5.638;2023-10-09T01:37:13;21.53;;;17.90;;
51566;SDS011;37657;53.182;5.638;2023-10-09T01:39:55;20.45;;;18.17;;
51566;SDS011;37657;53.182;5.638;2023-10-09T01:42:24;22.48;;;17.35;;
51566;SDS011;37657;53.182;5.638;2023-10-09T01:44:59;22.88;;;16.50;;
51566;SDS011;37657;53.182;5.638;2023-10-09T01:47:34;23.13;;;17.45;;
51566;SDS011;37657;53.182;5.638;2023-10-09T01:50:03;23.90;;;17.85;;
51566;SDS011;37657;53.182;5.638;2023-10-09T01:52:30;22.20;;;18.33;;
51566;SDS011;37657;53.182;5.638;2023-10-09T01:54:55;24.80;;;18.83;;
51566;SDS011;37657;53.182;5.638;2023-10-09T01:57:28;21.95;;;16.75;;
51566;SDS011;37657;53.182;5.638;2023-10-09T01:59:55;21.98;;;18.35;;
51566;SDS011;37657;53.182;5.638;2023-10-09T02:02:23;22.95;;;17.52;;
51566;SDS011;37657;53.182;5.638;2023-10-09T02:07:36;21.00;;;18.63;;
51566;SDS011;37657;53.182;5.638;2023-10-09T02:10:14;29.77;;;20.67;;
51566;SDS011;37657;53.182;5.638;2023-10-09T02:13:02;20.60;;;17.50;;
51566;SDS011;37657;53.182;5.638;2023-10-09T02:15:32;21.65;;;17.33;;
51566;SDS011;37657;53.182;5.638;2023-10-09T02:18:11;20.65;;;17.38;;
51566;SDS011;37657;53.182;5.638;2023-10-09T02:20:50;23.65;;;14.43;;
51566;SDS011;37657;53.182;5.638;2023-10-09T02:23:30;20.38;;;14.77;;
51566;SDS011;37657;53.182;5.638;2023-10-09T02:26:12;30.83;;;14.23;;
51566;SDS011;37657;53.182;5.638;2023-10-09T02:28:49;23.13;;;14.68;;
51566;SDS011;37657;53.182;5.638;2023-10-09T02:31:23;49.47;;;15.25;;
51566;SDS011;37657;53.182;5.638;2023-10-09T02:33:54;18.48;;;13.85;;
51566;SDS011;37657;53.182;5.638;2023-10-09T02:36:23;17.10;;;13.95;;
51566;SDS011;37657;53.182;5.638;2023-10-09T02:38:49;20.25;;;15.10;;
51566;SDS011;37657;53.182;5.638;2023-10-09T02:41:18;21.48;;;13.55;;
51566;SDS011;37657;53.182;5.638;2023-10-09T02:43:45;20.38;;;12.13;;
51566;SDS011;37657;53.182;5.638;2023-10-09T02:46:16;16.48;;;11.27;;
51566;SDS011;37657;53.182;5.638;2023-10-09T02:48:49;16.95;;;12.02;;
51566;SDS011;37657;53.182;5.638;2023-10-09T02:51:24;19.77;;;11.00;;
51566;SDS011;37657;53.182;5.638;2023-10-09T02:54:02;14.07;;;9.93;;
51566;SDS011;37657;53.182;5.638;2023-10-09T02:56:44;16.27;;;10.57;;
51566;SDS011;37657;53.182;5.638;2023-10-09T02:59:13;15.63;;;9.02;;
51566;SDS011;37657;53.182;5.638;2023-10-09T03:01:40;15.20;;;11.73;;
51566;SDS011;37657;53.182;5.638;2023-10-09T03:04:06;16.80;;;9.52;;
51566;SDS011;37657;53.182;5.638;2023-10-09T03:06:36;12.82;;;8.82;;
51566;SDS011;37657;53.182;5.638;2023-10-09T03:09:08;14.50;;;8.00;;
51566;SDS011;37657;53.182;5.638;2023-10-09T03:11:49;15.75;;;9.45;;
51566;SDS011;37657;53.182;5.638;2023-10-09T03:14:27;16.40;;;8.63;;
51566;SDS011;37657;53.182;5.638;2023-10-09T03:16:57;14.18;;;9.15;;
51566;SDS011;37657;53.182;5.638;2023-10-09T03:19:26;17.63;;;10.05;;
51566;SDS011;37657;53.182;5.638;2023-10-09T03:21:53;12.88;;;8.45;;
51566;SDS011;37657;53.182;5.638;2023-10-09T03:24:19;11.23;;;8.02;;
51566;SDS011;37657;53.182;5.638;2023-10-09T03:26:47;12.48;;;8.57;;
51566;SDS011;37657;53.182;5.638;2023-10-09T03:29:14;10.65;;;7.93;;
51566;SDS011;37657;53.182;5.638;2023-10-09T03:31:40;13.05;;;9.27;;
51566;SDS011;37657;53.182;5.638;2023-10-09T03:34:08;11.73;;;7.82;;
51566;SDS011;37657;53.182;5.638;2023-10-09T03:36:36;16.63;;;8.00;;
51566;SDS011;37657;53.182;5.638;2023-10-09T03:39:05;9.38;;;6.85;;
51566;SDS011;37657;53.182;5.638;2023-10-09T03:41:49;12.68;;;8.77;;
51566;SDS011;37657;53.182;5.638;2023-10-09T03:44:15;10.82;;;7.25;;
51566;SDS011;37657;53.182;5.638;2023-10-09T03:46:46;23.58;;;7.50;;
51566;SDS011;37657;53.182;5.638;2023-10-09T03:49:12;10.80;;;6.57;;
51566;SDS011;37657;53.182;5.638;2023-10-09T03:51:38;18.30;;;8.35;;
51566;SDS011;37657;53.182;5.638;2023-10-09T03:54:07;17.40;;;7.30;;
51566;SDS011;37657;53.182;5.638;2023-10-09T03:56:33;12.40;;;7.60;;
51566;SDS011;37657;53.182;5.638;2023-10-09T03:59:00;10.50;;;6.55;;
51566;SDS011;37657;53.182;5.638;2023-10-09T04:01:27;14.95;;;7.43;;
51566;SDS011;37657;53.182;5.638;2023-10-09T04:03:53;13.23;;;6.78;;
51566;SDS011;37657;53.182;5.638;2023-10-09T04:06:20;8.25;;;6.25;;
51566;SDS011;37657;53.182;5.638;2023-10-09T04:08:47;11.05;;;7.10;;
51566;SDS011;37657;53.182;5.638;2023-10-09T04:11:14;14.95;;;7.65;;
51566;SDS011;37657;53.182;5.638;2023-10-09T04:13:47;24.30;;;7.55;;
51566;SDS011;37657;53.182;5.638;2023-10-09T04:16:18;16.35;;;6.82;;
51566;SDS011;37657;53.182;5.638;2023-10-09T04:19:02;12.25;;;6.80;;
51566;SDS011;37657;53.182;5.638;2023-10-09T04:21:36;12.20;;;6.45;;
51566;SDS011;37657;53.182;5.638;2023-10-09T04:24:08;12.85;;;6.53;;
51566;SDS011;37657;53.182;5.638;2023-10-09T04:26:37;13.85;;;7.60;;
51566;SDS011;37657;53.182;5.638;2023-10-09T04:29:13;12.00;;;7.55;;
51566;SDS011;37657;53.182;5.638;2023-10-09T04:31:48;9.55;;;6.63;;
51566;SDS011;37657;53.182;5.638;2023-10-09T04:34:19;14.07;;;6.88;;
51566;SDS011;37657;53.182;5.638;2023-10-09T04:36:54;12.52;;;6.22;;
51566;SDS011;37657;53.182;5.638;2023-10-09T04:39:26;10.93;;;8.18;;
51566;SDS011;37657;53.182;5.638;2023-10-09T04:41:55;12.30;;;7.32;;
51566;SDS011;37657;53.182;5.638;2023-10-09T04:44:40;12.77;;;7.53;;
51566;SDS011;37657;53.182;5.638;2023-10-09T04:47:44;13.45;;;8.30;;
51566;SDS011;37657;53.182;5.638;2023-10-09T04:50:23;11.95;;;7.85;;
51566;SDS011;37657;53.182;5.638;2023-10-09T04:52:56;11.68;;;7.53;;
51566;SDS011;37657;53.182;5.638;2023-10-09T04:55:30;13.48;;;7.32;;
51566;SDS011;37657;53.182;5.638;2023-10-09T04:58:03;17.63;;;7.72;;
51566;SDS011;37657;53.182;5.638;2023-10-09T05:00:48;11.87;;;7.47;;
51566;SDS011;37657;53.182;5.638;2023-10-09T05:03:29;12.13;;;6.95;;
51566;SDS011;37657;53.182;5.638;2023-10-09T05:06:04;14.10;;;8.20;;
51566;SDS011;37657;53.182;5.638;2023-10-09T05:08:49;10.25;;;6.78;;
51566;SDS011;37657;53.182;5.638;2023-10-09T05:11:21;11.93;;;7.60;;
51566;SDS011;37657;53.182;5.638;2023-10-09T05:14:00;12.95;;;7.57;;
51566;SDS011;37657;53.182;5.638;2023-10-09T05:16:38;12.10;;;7.43;;
51566;SDS011;37657;53.182;5.638;2023-10-09T05:19:26;10.07;;;7.32;;
51566;SDS011;37657;53.182;5.638;2023-10-09T05:22:19;11.90;;;8.57;;
51566;SDS011;37657;53.182;5.638;2023-10-09T05:24:58;11.70;;;6.75;;
51566;SDS011;37657;53.182;5.638;2023-10-09T05:27:23;10.60;;;8.65;;
51566;SDS011;37657;53.182;5.638;2023-10-09T05:30:09;9.85;;;6.70;;
51566;SDS011;37657;53.182;5.638;2023-10-09T05:32:51;14.23;;;7.88;;
51566;SDS011;37657;53.182;5.638;2023-10-09T05:35:23;16.58;;;7.78;;
51566;SDS011;37657;53.182;5.638;2023-10-09T05:38:05;11.57;;;8.30;;
51566;SDS011;37657;53.182;5.638;2023-10-09T05:40:40;13.95;;;8.10;;
51566;SDS011;37657;53.182;5.638;2023-10-09T05:43:08;22.63;;;9.18;;
51566;SDS011;37657;53.182;5.638;2023-10-09T05:45:54;16.65;;;7.82;;
51566;SDS011;37657;53.182;5.638;2023-10-09T05:48:40;14.60;;;9.20;;
51566;SDS011;37657;53.182;5.638;2023-10-09T05:51:05;12.55;;;7.72;;
51566;SDS011;37657;53.182;5.638;2023-10-09T05:53:34;13.02;;;7.65;;
51566;SDS011;37657;53.182;5.638;2023-10-09T05:56:08;11.32;;;7.57;;
51566;SDS011;37657;53.182;5.638;2023-10-09T05:58:53;12.40;;;7.35;;
51566;SDS011;37657;53.182;5.638;2023-10-09T06:01:36;11.52;;;7.53;;
51566;SDS011;37657;53.182;5.638;2023-10-09T06:04:20;15.48;;;7.82;;
51566;SDS011;37657;53.182;5.638;2023-10-09T06:06:59;11.32;;;7.68;;
51566;SDS011;37657;53.182;5.638;2023-10-09T06:09:35;9.70;;;6.93;;
51566;SDS011;37657;53.182;5.638;2023-10-09T06:12:18;10.50;;;6.82;;
51566;SDS011;37657;53.182;5.638;2023-10-09T06:15:14;9.15;;;6.40;;
51566;SDS011;37657;53.182;5.638;2023-10-09T06:17:56;14.68;;;7.63;;
51566;SDS011;37657;53.182;5.638;2023-10-09T06:20:41;15.27;;;9.05;;
51566;SDS011;37657;53.182;5.638;2023-10-09T06:23:25;16.27;;;8.60;;
51566;SDS011;37657;53.182;5.638;2023-10-09T06:26:11;17.83;;;8.30;;
51566;SDS011;37657;53.182;5.638;2023-10-09T06:28:49;15.75;;;7.85;;
51566;SDS011;37657;53.182;5.638;2023-10-09T06:31:35;15.68;;;9.30;;
51566;SDS011;37657;53.182;5.638;2023-10-09T06:34:19;12.88;;;7.65;;
51566;SDS011;37657;53.182;5.638;2023-10-09T06:36:47;13.18;;;7.80;;
51566;SDS011;37657;53.182;5.638;2023-10-09T06:39:18;17.73;;;8.00;;
51566;SDS011;37657;53.182;5.638;2023-10-09T06:42:02;10.73;;;7.57;;
51566;SDS011;37657;53.182;5.638;2023-10-09T06:44:41;15.88;;;7.60;;
51566;SDS011;37657;53.182;5.638;2023-10-09T06:47:18;15.15;;;7.75;;
51566;SDS011;37657;53.182;5.638;2023-10-09T06:49:49;9.02;;;6.85;;
51566;SDS011;37657;53.182;5.638;2023-10-09T06:52:34;16.10;;;7.35;;
51566;SDS011;37657;53.182;5.638;2023-10-09T06:55:18;16.60;;;8.05;;
51566;SDS011;37657;53.182;5.638;2023-10-09T06:57:52;11.23;;;7.20;;
51566;SDS011;37657;53.182;5.638;2023-10-09T07:00:19;13.95;;;6.97;;
51566;SDS011;37657;53.182;5.638;2023-10-09T07:03:08;13.65;;;7.93;;
51566;SDS011;37657;53.182;5.638;2023-10-09T07:05:36;10.13;;;6.72;;
51566;SDS011;37657;53.182;5.638;2023-10-09T07:08:25;11.25;;;6.50;;
51566;SDS011;37657;53.182;5.638;2023-10-09T07:10:57;9.45;;;6.57;;
51566;SDS011;37657;53.182;5.638;2023-10-09T07:13:45;15.35;;;8.52;;
51566;SDS011;37657;53.182;5.638;2023-10-09T07:16:22;11.45;;;7.65;;
51566;SDS011;37657;53.182;5.638;2023-10-09T07:19:03;11.00;;;6.85;;
51566;SDS011;37657;53.182;5.638;2023-10-09T07:21:44;9.57;;;7.10;;
51566;SDS011;37657;53.182;5.638;2023-10-09T07:24:19;10.98;;;8.73;;
51566;SDS011;37657;53.182;5.638;2023-10-09T07:27:03;16.33;;;8.27;;
51566;SDS011;37657;53.182;5.638;2023-10-09T07:29:38;12.43;;;7.32;;
51566;SDS011;37657;53.182;5.638;2023-10-09T07:32:17;12.48;;;7.70;;
51566;SDS011;37657;53.182;5.638;2023-10-09T07:34:46;16.08;;;8.23;;
51566;SDS011;37657;53.182;5.638;2023-10-09T07:37:22;11.63;;;7.90;;
51566;SDS011;37657;53.182;5.638;2023-10-09T07:39:49;18.73;;;8.70;;
51566;SDS011;37657;53.182;5.638;2023-10-09T07:42:22;15.70;;;7.82;;
51566;SDS011;37657;53.182;5.638;2023-10-09T07:44:58;16.20;;;7.85;;
51566;SDS011;37657;53.182;5.638;2023-10-09T07:47:36;8.43;;;6.65;;
51566;SDS011;37657;53.182;5.638;2023-10-09T07:50:26;10.80;;;7.15;;
51566;SDS011;37657;53.182;5.638;2023-10-09T07:53:13;16.38;;;7.03;;
51566;SDS011;37657;53.182;5.638;2023-10-09T07:55:57;37.17;;;8.73;;
51566;SDS011;37657;53.182;5.638;2023-10-09T07:58:31;11.93;;;7.70;;
51566;SDS011;37657;53.182;5.638;2023-10-09T08:01:11;13.25;;;9.38;;
51566;SDS011;37657;53.182;5.638;2023-10-09T08:03:56;12.87;;;7.80;;
51566;SDS011;37657;53.182;5.638;2023-10-09T08:06:30;13.68;;;7.90;;
51566;SDS011;37657;53.182;5.638;2023-10-09T08:09:10;11.35;;;7.30;;
51566;SDS011;37657;53.182;5.638;2023-10-09T08:11:40;20.75;;;8.27;;
51566;SDS011;37657;53.182;5.638;2023-10-09T08:14:38;14.40;;;7.85;;
51566;SDS011;37657;53.182;5.638;2023-10-09T08:17:08;26.80;;;8.45;;
51566;SDS011;37657;53.182;5.638;2023-10-09T08:19:40;13.63;;;7.78;;
51566;SDS011;37657;53.182;5.638;2023-10-09T08:24:52;13.27;;;6.55;;
51566;SDS011;37657;53.182;5.638;2023-10-09T08:27:29;34.42;;;8.13;;
51566;SDS011;37657;53.182;5.638;2023-10-09T08:32:43;13.68;;;8.75;;
51566;SDS011;37657;53.182;5.638;2023-10-09T08:35:29;13.02;;;6.78;;
51566;SDS011;37657;53.182;5.638;2023-10-09T08:37:56;12.52;;;6.38;;
51566;SDS011;37657;53.182;5.638;2023-10-09T08:40:35;17.48;;;7.60;;
51566;SDS011;37657;53.182;5.638;2023-10-09T08:43:25;12.82;;;7.05;;
51566;SDS011;37657;53.182;5.638;2023-10-09T08:45:54;10.93;;;7.35;;
51566;SDS011;37657;53.182;5.638;2023-10-09T08:48:26;13.50;;;7.85;;
51566;SDS011;37657;53.182;5.638;2023-10-09T08:50:53;22.45;;;8.27;;
51566;SDS011;37657;53.182;5.638;2023-10-09T08:53:20;15.30;;;6.80;;
51566;SDS011;37657;53.182;5.638;2023-10-09T08:55:47;15.45;;;7.43;;
51566;SDS011;37657;53.182;5.638;2023-10-09T08:58:16;22.90;;;7.88;;
51566;SDS011;37657;53.182;5.638;2023-10-09T09:03:20;19.88;;;7.40;;
51566;SDS011;37657;53.182;5.638;2023-10-09T09:05:57;12.15;;;7.80;;
51566;SDS011;37657;53.182;5.638;2023-10-09T09:08:29;11.70;;;7.15;;
51566;SDS011;37657;53.182;5.638;2023-10-09T09:16:19;12.82;;;7.05;;
51566;SDS011;37657;53.182;5.638;2023-10-09T09:19:04;12.57;;;7.88;;
51566;SDS011;37657;53.182;5.638;2023-10-09T09:21:34;10.73;;;7.65;;
51566;SDS011;37657;53.182;5.638;2023-10-09T09:24:07;13.30;;;7.18;;
51566;SDS011;37657;53.182;5.638;2023-10-09T09:26:56;15.45;;;7.07;;
51566;SDS011;37657;53.182;5.638;2023-10-09T09:32:07;12.10;;;8.25;;
51566;SDS011;37657;53.182;5.638;2023-10-09T09:34:44;22.05;;;9.93;;
51566;SDS011;37657;53.182;5.638;2023-10-09T09:37:27;14.93;;;7.03;;
51566;SDS011;37657;53.182;5.638;2023-10-09T09:39:57;15.00;;;7.30;;
51566;SDS011;37657;53.182;5.638;2023-10-09T09:42:25;17.10;;;8.45;;
51566;SDS011;37657;53.182;5.638;2023-10-09T09:44:58;10.38;;;7.68;;
51566;SDS011;37657;53.182;5.638;2023-10-09T09:47:26;16.70;;;9.45;;
51566;SDS011;37657;53.182;5.638;2023-10-09T09:49:55;12.82;;;7.32;;
51566;SDS011;37657;53.182;5.638;2023-10-09T09:52:26;10.98;;;7.75;;
51566;SDS011;37657;53.182;5.638;2023-10-09T09:55:05;16.17;;;9.20;;
51566;SDS011;37657;53.182;5.638;2023-10-09T09:57:39;17.02;;;7.97;;
51566;SDS011;37657;53.182;5.638;2023-10-09T10:00:06;12.35;;;8.07;;
51566;SDS011;37657;53.182;5.638;2023-10-09T10:03:06;13.63;;;6.78;;
51566;SDS011;37657;53.182;5.638;2023-10-09T10:05:45;14.68;;;8.00;;
51566;SDS011;37657;53.182;5.638;2023-10-09T10:08:17;12.00;;;7.78;;
51566;SDS011;37657;53.182;5.638;2023-10-09T10:10:44;16.25;;;7.65;;
51566;SDS011;37657;53.182;5.638;2023-10-09T10:16:16;12.38;;;7.68;;
51566;SDS011;37657;53.182;5.638;2023-10-09T10:18:57;16.15;;;7.85;;
51566;SDS011;37657;53.182;5.638;2023-10-09T10:21:36;11.95;;;7.32;;
51566;SDS011;37657;53.182;5.638;2023-10-09T10:27:16;11.50;;;7.22;;
51566;SDS011;37657;53.182;5.638;2023-10-09T10:32:54;16.38;;;8.60;;
51566;SDS011;37657;53.182;5.638;2023-10-09T10:35:34;10.27;;;7.07;;
51566;SDS011;37657;53.182;5.638;2023-10-09T10:40:50;13.25;;;8.73;;
51566;SDS011;37657;53.182;5.638;2023-10-09T10:43:28;24.75;;;7.82;;
51566;SDS011;37657;53.182;5.638;2023-10-09T10:46:20;13.60;;;7.30;;
51566;SDS011;37657;53.182;5.638;2023-10-09T10:49:04;13.35;;;7.25;;
51566;SDS011;37657;53.182;5.638;2023-10-09T10:51:37;19.38;;;8.98;;
51566;SDS011;37657;53.182;5.638;2023-10-09T10:54:04;16.52;;;7.13;;
51566;SDS011;37657;53.182;5.638;2023-10-09T10:56:48;18.90;;;8.07;;
51566;SDS011;37657;53.182;5.638;2023-10-09T10:59:14;13.90;;;7.68;;
51566;SDS011;37657;53.182;5.638;2023-10-09T11:01:48;9.00;;;5.32;;
51566;SDS011;37657;53.182;5.638;2023-10-09T11:04:27;11.85;;;6.25;;
51566;SDS011;37657;53.182;5.638;2023-10-09T11:07:00;8.88;;;5.90;;
51566;SDS011;37657;53.182;5.638;2023-10-09T11:09:50;10.75;;;7.07;;
51566;SDS011;37657;53.182;5.638;2023-10-09T11:15:07;8.50;;;5.75;;
51566;SDS011;37657;53.182;5.638;2023-10-09T11:18:04;8.65;;;5.07;;
51566;SDS011;37657;53.182;5.638;2023-10-09T11:20:41;19.10;;;6.07;;
51566;SDS011;37657;53.182;5.638;2023-10-09T11:23:21;16.65;;;7.13;;
51566;SDS011;37657;53.182;5.638;2023-10-09T11:26:00;8.85;;;5.57;;
51566;SDS011;37657;53.182;5.638;2023-10-09T11:31:38;14.75;;;6.80;;
51566;SDS011;37657;53.182;5.638;2023-10-09T11:34:08;18.50;;;6.15;;
51566;SDS011;37657;53.182;5.638;2023-10-09T11:36:53;16.08;;;6.00;;
51566;SDS011;37657;53.182;5.638;2023-10-09T11:39:24;10.93;;;5.60;;
51566;SDS011;37657;53.182;5.638;2023-10-09T11:42:00;12.98;;;5.70;;
51566;SDS011;37657;53.182;5.638;2023-10-09T11:44:40;12.38;;;5.43;;
51566;SDS011;37657;53.182;5.638;2023-10-09T11:47:10;8.80;;;5.05;;
51566;SDS011;37657;53.182;5.638;2023-10-09T11:52:30;9.93;;;5.38;;
51566;SDS011;37657;53.182;5.638;2023-10-09T11:55:00;12.82;;;6.25;;
51566;SDS011;37657;53.182;5.638;2023-10-09T11:57:28;10.80;;;5.80;;
51566;SDS011;37657;53.182;5.638;2023-10-09T11:59:56;14.30;;;6.43;;
51566;SDS011;37657;53.182;5.638;2023-10-09T12:02:23;17.50;;;5.25;;
51566;SDS011;37657;53.182;5.638;2023-10-09T12:04:48;13.70;;;7.55;;
51566;SDS011;37657;53.182;5.638;2023-10-09T12:07:14;7.68;;;4.50;;
51566;SDS011;37657;53.182;5.638;2023-10-09T12:09:40;12.18;;;5.28;;
51566;SDS011;37657;53.182;5.638;2023-10-09T12:12:06;8.13;;;4.75;;
51566;SDS011;37657;53.182;5.638;2023-10-09T12:14:36;11.43;;;5.25;;
51566;SDS011;37657;53.182;5.638;2023-10-09T12:17:05;13.93;;;5.22;;
51566;SDS011;37657;53.182;5.638;2023-10-09T12:19:35;14.38;;;5.57;;
51566;SDS011;37657;53.182;5.638;2023-10-09T12:22:02;7.50;;;4.32;;
51566;SDS011;37657;53.182;5.638;2023-10-09T12:24:30;5.90;;;3.67;;
51566;SDS011;37657;53.182;5.638;2023-10-09T12:26:56;12.93;;;5.53;;
51566;SDS011;37657;53.182;5.638;2023-10-09T12:29:22;6.65;;;4.03;;
51566;SDS011;37657;53.182;5.638;2023-10-09T12:31:51;25.38;;;6.13;;
51566;SDS011;37657;53.182;5.638;2023-10-09T12:34:26;37.63;;;6.82;;
51566;SDS011;37657;53.182;5.638;2023-10-09T12:36:55;11.38;;;5.75;;
51566;SDS011;37657;53.182;5.638;2023-10-09T12:39:25;17.45;;;6.30;;
51566;SDS011;37657;53.182;5.638;2023-10-09T12:41:56;8.55;;;4.63;;
51566;SDS011;37657;53.182;5.638;2023-10-09T12:44:23;34.85;;;8.43;;
51566;SDS011;37657;53.182;5.638;2023-10-09T12:46:52;10.13;;;4.30;;
51566;SDS011;37657;53.182;5.638;2023-10-09T12:49:21;10.48;;;4.55;;
51566;SDS011;37657;53.182;5.638;2023-10-09T12:51:53;6.90;;;4.72;;
51566;SDS011;37657;53.182;5.638;2023-10-09T12:54:19;13.05;;;4.97;;
51566;SDS011;37657;53.182;5.638;2023-10-09T12:56:45;7.35;;;3.72;;
51566;SDS011;37657;53.182;5.638;2023-10-09T12:59:14;15.63;;;5.68;;
51566;SDS011;37657;53.182;5.638;2023-10-09T13:01:40;8.73;;;4.72;;
51566;SDS011;37657;53.182;5.638;2023-10-09T13:04:13;13.65;;;4.40;;
51566;SDS011;37657;53.182;5.638;2023-10-09T13:06:43;6.88;;;3.92;;
51566;SDS011;37657;53.182;5.638;2023-10-09T13:09:09;8.52;;;4.97;;
51566;SDS011;37657;53.182;5.638;2023-10-09T13:11:59;9.60;;;5.40;;
51566;SDS011;37657;53.182;5.638;2023-10-09T13:14:26;10.93;;;5.15;;
51566;SDS011;37657;53.182;5.638;2023-10-09T13:16:52;20.23;;;4.60;;
51566;SDS011;37657;53.182;5.638;2023-10-09T13:19:18;10.38;;;5.15;;
51566;SDS011;37657;53.182;5.638;2023-10-09T13:21:44;11.10;;;4.82;;
51566;SDS011;37657;53.182;5.638;2023-10-09T13:24:10;7.28;;;4.25;;
51566;SDS011;37657;53.182;5.638;2023-10-09T13:26:41;10.45;;;3.92;;
51566;SDS011;37657;53.182;5.638;2023-10-09T13:29:10;12.30;;;4.80;;
51566;SDS011;37657;53.182;5.638;2023-10-09T13:31:36;10.13;;;5.20;;
51566;SDS011;37657;53.182;5.638;2023-10-09T13:34:06;10.77;;;4.38;;
51566;SDS011;37657;53.182;5.638;2023-10-09T13:36:35;10.95;;;4.25;;
51566;SDS011;37657;53.182;5.638;2023-10-09T13:39:08;6.63;;;3.47;;
51566;SDS011;37657;53.182;5.638;2023-10-09T13:41:55;7.22;;;4.28;;
51566;SDS011;37657;53.182;5.638;2023-10-09T13:44:26;11.30;;;3.75;;
51566;SDS011;37657;53.182;5.638;2023-10-09T13:47:00;11.85;;;4.63;;
51566;SDS011;37657;53.182;5.638;2023-10-09T13:49:28;9.63;;;4.15;;
51566;SDS011;37657;53.182;5.638;2023-10-09T13:52:00;11.13;;;4.80;;
51566;SDS011;37657;53.182;5.638;2023-10-09T13:54:27;11.55;;;4.50;;
51566;SDS011;37657;53.182;5.638;2023-10-09T13:57:04;7.55;;;3.28;;
51566;SDS011;37657;53.182;5.638;2023-10-09T13:59:34;6.25;;;3.78;;
51566;SDS011;37657;53.182;5.638;2023-10-09T14:02:01;9.65;;;3.90;;
51566;SDS011;37657;53.182;5.638;2023-10-09T14:04:28;5.88;;;3.28;;
51566;SDS011;37657;53.182;5.638;2023-10-09T14:06:54;9.85;;;3.78;;
51566;SDS011;37657;53.182;5.638;2023-10-09T14:09:28;10.05;;;4.10;;
51566;SDS011;37657;53.182;5.638;2023-10-09T14:12:01;9.70;;;3.90;;
51566;SDS011;37657;53.182;5.638;2023-10-09T14:15:00;11.32;;;3.85;;
51566;SDS011;37657;53.182;5.638;2023-10-09T14:17:28;6.88;;;3.80;;
51566;SDS011;37657;53.182;5.638;2023-10-09T14:19:54;10.85;;;3.30;;
51566;SDS011;37657;53.182;5.638;2023-10-09T14:22:26;8.55;;;4.28;;
51566;SDS011;37657;53.182;5.638;2023-10-09T14:24:52;6.05;;;3.22;;
51566;SDS011;37657;53.182;5.638;2023-10-09T14:27:22;6.18;;;3.53;;
51566;SDS011;37657;53.182;5.638;2023-10-09T14:29:51;7.82;;;4.60;;
51566;SDS011;37657;53.182;5.638;2023-10-09T14:32:21;9.02;;;4.93;;
51566;SDS011;37657;53.182;5.638;2023-10-09T14:34:54;10.00;;;4.78;;
51566;SDS011;37657;53.182;5.638;2023-10-09T14:37:25;23.42;;;4.75;;
51566;SDS011;37657;53.182;5.638;2023-10-09T14:39:51;19.23;;;4.78;;
51566;SDS011;37657;53.182;5.638;2023-10-09T14:42:18;8.18;;;4.03;;
51566;SDS011;37657;53.182;5.638;2023-10-09T14:44:45;14.73;;;4.25;;
51566;SDS011;37657;53.182;5.638;2023-10-09T14:47:11;9.13;;;4.43;;
51566;SDS011;37657;53.182;5.638;2023-10-09T14:49:39;5.60;;;3.40;;
51566;SDS011;37657;53.182;5.638;2023-10-09T14:52:11;8.30;;;4.32;;
51566;SDS011;37657;53.182;5.638;2023-10-09T14:54:41;6.53;;;3.60;;
51566;SDS011;37657;53.182;5.638;2023-10-09T14:57:07;13.98;;;5.10;;
51566;SDS011;37657;53.182;5.638;2023-10-09T14:59:36;6.25;;;3.83;;
51566;SDS011;37657;53.182;5.638;2023-10-09T15:02:02;7.60;;;3.08;;
51566;SDS011;37657;53.182;5.638;2023-10-09T15:04:28;6.68;;;3.92;;
51566;SDS011;37657;53.182;5.638;2023-10-09T15:06:53;8.90;;;3.92;;
51566;SDS011;37657;53.182;5.638;2023-10-09T15:09:19;7.00;;;3.42;;
51566;SDS011;37657;53.182;5.638;2023-10-09T15:11:48;7.10;;;3.47;;
51566;SDS011;37657;53.182;5.638;2023-10-09T15:14:15;10.63;;;3.72;;
51566;SDS011;37657;53.182;5.638;2023-10-09T15:16:43;7.05;;;3.67;;
51566;SDS011;37657;53.182;5.638;2023-10-09T15:19:09;6.40;;;2.97;;
51566;SDS011;37657;53.182;5.638;2023-10-09T15:21:36;9.63;;;4.10;;
51566;SDS011;37657;53.182;5.638;2023-10-09T15:24:08;10.48;;;4.50;;
51566;SDS011;37657;53.182;5.638;2023-10-09T15:26:35;8.55;;;3.45;;
51566;SDS011;37657;53.182;5.638;2023-10-09T15:29:01;6.82;;;3.70;;
51566;SDS011;37657;53.182;5.638;2023-10-09T15:31:31;6.57;;;3.65;;
51566;SDS011;37657;53.182;5.638;2023-10-09T15:33:58;6.35;;;4.28;;
51566;SDS011;37657;53.182;5.638;2023-10-09T15:36:24;15.40;;;3.95;;
51566;SDS011;37657;53.182;5.638;2023-10-09T15:38:54;9.73;;;3.45;;
51566;SDS011;37657;53.182;5.638;2023-10-09T15:41:24;8.07;;;4.22;;
51566;SDS011;37657;53.182;5.638;2023-10-09T15:43:56;8.05;;;5.35;;
51566;SDS011;37657;53.182;5.638;2023-10-09T15:46:23;3.95;;;2.58;;
51566;SDS011;37657;53.182;5.638;2023-10-09T15:48:51;10.13;;;3.58;;
51566;SDS011;37657;53.182;5.638;2023-10-09T15:51:18;4.88;;;3.40;;